createdAt,value
2022-08-17T00:02:26.290Z,17.07
2022-08-17T00:04:55.203Z,17.17
2022-08-17T00:07:22.586Z,21.27
2022-08-17T00:09:49.617Z,18.40
2022-08-17T00:12:42.620Z,22.53
2022-08-17T00:15:05.268Z,19.80
2022-08-17T00:17:33.008Z,21.03
2022-08-17T00:20:00.362Z,19.77
2022-08-17T00:22:32.215Z,20.20
2022-08-17T00:25:05.581Z,16.20
2022-08-17T00:27:32.508Z,15.53
2022-08-17T00:29:59.631Z,15.30
2022-08-17T00:33:12.355Z,14.27
2022-08-17T00:35:17.825Z,16.70
2022-08-17T00:37:44.802Z,14.50
2022-08-17T00:40:13.601Z,17.50
2022-08-17T00:42:41.092Z,17.73
2022-08-17T00:45:10.247Z,15.23
2022-08-17T00:47:37.258Z,16.87
2022-08-17T00:50:07.316Z,17.60
2022-08-17T00:52:36.213Z,13.03
2022-08-17T00:55:04.156Z,14.67
2022-08-17T00:57:36.788Z,18.23
2022-08-17T01:00:29.932Z,17.43
2022-08-17T01:03:06.652Z,16.33
2022-08-17T01:05:34.856Z,17.23
2022-08-17T01:08:02.311Z,18.17
2022-08-17T01:10:59.457Z,15.77
2022-08-17T01:13:40.352Z,15.47
2022-08-17T01:16:12.148Z,22.53
2022-08-17T01:18:39.455Z,26.40
2022-08-17T01:21:13.824Z,15.57
2022-08-17T01:23:43.051Z,19.00
2022-08-17T01:26:10.029Z,16.03
2022-08-17T01:28:55.030Z,15.60
2022-08-17T01:31:23.835Z,15.63
2022-08-17T01:33:50.741Z,12.03
2022-08-17T01:36:18.324Z,12.67
2022-08-17T01:38:45.299Z,10.00
2022-08-17T01:41:14.197Z,15.27
2022-08-17T01:43:45.771Z,17.97
2022-08-17T01:46:21.159Z,15.57
2022-08-17T01:48:48.734Z,12.77
2022-08-17T01:51:16.231Z,14.63
2022-08-17T01:53:46.497Z,15.17
2022-08-17T01:56:14.997Z,15.07
2022-08-17T01:58:42.916Z,19.47
2022-08-17T02:01:10.390Z,20.80
2022-08-17T02:03:38.037Z,14.83
2022-08-17T02:06:11.983Z,19.17
2022-08-17T02:09:03.152Z,21.93
2022-08-17T02:11:32.282Z,18.60
2022-08-17T02:14:02.922Z,18.17
2022-08-17T02:16:37.082Z,24.30
2022-08-17T02:19:09.506Z,25.90
2022-08-17T02:21:37.730Z,18.97
2022-08-17T02:24:05.513Z,30.00
2022-08-17T02:26:32.741Z,21.07
2022-08-17T02:28:59.854Z,24.07
2022-08-17T02:31:26.933Z,21.63
2022-08-17T02:34:00.394Z,19.07
2022-08-17T02:36:32.328Z,22.17
2022-08-17T02:39:01.645Z,21.27
2022-08-17T02:41:28.769Z,30.07
2022-08-17T02:43:55.761Z,22.50
2022-08-17T02:46:22.889Z,23.50
2022-08-17T02:48:50.013Z,21.37
2022-08-17T02:51:17.276Z,20.40
2022-08-17T02:53:44.515Z,21.00
2022-08-17T02:56:11.478Z,17.60
2022-08-17T02:58:38.582Z,21.77
2022-08-17T03:01:06.307Z,21.17
2022-08-17T03:03:33.926Z,22.10
2022-08-17T03:06:01.397Z,16.40
2022-08-17T03:08:28.381Z,19.10
2022-08-17T03:10:55.425Z,22.13
2022-08-17T03:13:22.659Z,20.10
2022-08-17T03:15:49.898Z,21.97
2022-08-17T03:18:24.202Z,19.83
2022-08-17T03:20:52.920Z,19.57
2022-08-17T03:23:24.123Z,26.63
2022-08-17T03:25:52.862Z,20.13
2022-08-17T03:28:20.750Z,24.93
2022-08-17T03:30:47.813Z,18.47
2022-08-17T03:33:14.878Z,19.37
2022-08-17T03:35:42.340Z,19.13
2022-08-17T03:38:10.451Z,21.23
2022-08-17T03:40:58.703Z,23.03
2022-08-17T03:43:24.973Z,23.80
2022-08-17T03:46:25.523Z,22.67
2022-08-17T03:49:16.449Z,21.87
2022-08-17T03:52:01.968Z,21.27
2022-08-17T03:54:47.433Z,23.10
2022-08-17T03:57:14.560Z,22.17
2022-08-17T03:59:41.540Z,21.30
2022-08-17T04:02:12.057Z,25.10
2022-08-17T04:04:40.269Z,23.13
2022-08-17T04:07:07.557Z,25.00
2022-08-17T04:09:34.778Z,23.23
2022-08-17T04:12:04.784Z,21.93
2022-08-17T04:14:51.422Z,21.63
2022-08-17T04:17:20.386Z,20.57
2022-08-17T04:19:47.473Z,20.60
2022-08-17T04:22:31.184Z,21.23
2022-08-17T04:25:06.592Z,22.83
2022-08-17T04:27:33.694Z,19.13
2022-08-17T04:30:00.950Z,19.60
2022-08-17T04:33:03.692Z,21.07
2022-08-17T04:35:18.479Z,25.17
2022-08-17T04:37:45.542Z,21.33
2022-08-17T04:40:31.111Z,23.20
2022-08-17T04:43:18.604Z,19.53
2022-08-17T04:45:55.671Z,25.77
2022-08-17T04:48:36.574Z,27.70
2022-08-17T04:51:15.000Z,24.00
2022-08-17T04:53:44.645Z,24.57
2022-08-17T04:56:17.093Z,23.13
2022-08-17T04:58:47.198Z,21.57
2022-08-17T05:01:14.732Z,27.03
2022-08-17T05:03:42.282Z,25.70
2022-08-17T05:06:09.678Z,23.80
2022-08-17T05:08:36.748Z,24.97
2022-08-17T05:11:04.046Z,22.70
2022-08-17T05:13:31.078Z,25.37
2022-08-17T05:16:02.055Z,25.57
2022-08-17T05:18:29.276Z,26.60
2022-08-17T05:20:56.761Z,28.27
2022-08-17T05:23:24.808Z,29.83
2022-08-17T05:25:52.852Z,33.07
2022-08-17T05:28:26.700Z,29.10
2022-08-17T05:30:56.200Z,26.17
2022-08-17T05:33:24.685Z,28.90
2022-08-17T05:35:52.355Z,31.97
2022-08-17T05:38:20.438Z,29.90
2022-08-17T05:40:47.989Z,27.27
2022-08-17T05:43:19.485Z,34.27
2022-08-17T05:45:54.729Z,31.57
2022-08-17T05:48:39.479Z,30.67
2022-08-17T05:51:07.453Z,28.70
2022-08-17T05:54:00.391Z,32.87
2022-08-17T05:56:36.745Z,28.43
2022-08-17T05:59:22.057Z,31.23
2022-08-17T06:01:56.222Z,30.77
2022-08-17T06:04:41.624Z,33.00
2022-08-17T06:07:14.550Z,34.37
2022-08-17T06:09:49.212Z,29.30
2022-08-17T06:12:25.228Z,30.33
2022-08-17T06:14:52.913Z,31.07
2022-08-17T06:17:22.223Z,32.03
2022-08-17T06:20:00.527Z,30.47
2022-08-17T06:22:29.859Z,34.23
2022-08-17T06:25:04.839Z,29.87
2022-08-17T06:27:47.481Z,30.47
2022-08-17T06:30:26.085Z,26.73
2022-08-17T06:32:55.423Z,28.70
2022-08-17T06:35:32.095Z,31.20
2022-08-17T06:38:38.039Z,30.70
2022-08-17T06:41:24.532Z,30.20
2022-08-17T06:43:59.487Z,29.97
2022-08-17T06:46:26.439Z,30.87
2022-08-17T06:48:54.085Z,27.80
2022-08-17T06:51:33.607Z,31.00
2022-08-17T06:54:05.769Z,27.90
2022-08-17T06:56:54.800Z,29.87
2022-08-17T06:59:25.651Z,33.80
2022-08-17T07:01:53.987Z,30.27
2022-08-17T07:04:24.473Z,30.77
2022-08-17T07:06:52.806Z,31.63
2022-08-17T07:09:26.321Z,30.57
2022-08-17T07:11:55.902Z,29.37
2022-08-17T07:14:32.172Z,28.53
2022-08-17T07:17:02.213Z,26.37
2022-08-17T07:19:31.974Z,24.77
2022-08-17T07:22:14.212Z,31.33
2022-08-17T07:24:47.661Z,26.77
2022-08-17T07:27:17.543Z,24.80
2022-08-17T07:29:56.888Z,28.30
2022-08-17T07:32:26.633Z,27.93
2022-08-17T07:35:21.299Z,29.83
2022-08-17T07:37:58.913Z,28.10
2022-08-17T07:40:28.742Z,28.50
2022-08-17T07:43:04.949Z,21.57
2022-08-17T07:45:51.166Z,26.90
2022-08-17T07:48:22.494Z,24.50
2022-08-17T07:50:50.787Z,18.73
2022-08-17T07:53:25.931Z,22.03
2022-08-17T07:55:53.819Z,19.50
2022-08-17T07:58:22.269Z,23.17
2022-08-17T08:01:11.908Z,23.63
2022-08-17T08:03:42.159Z,23.10
2022-08-17T08:06:20.466Z,16.43
2022-08-17T08:08:52.081Z,21.50
2022-08-17T08:11:44.136Z,20.73
2022-08-17T08:14:31.495Z,23.97
2022-08-17T08:17:02.666Z,24.07
2022-08-17T08:19:30.449Z,15.20
2022-08-17T08:22:04.391Z,16.93
2022-08-17T08:25:00.901Z,20.27
2022-08-17T08:27:27.977Z,21.87
2022-08-17T08:30:03.136Z,21.40
2022-08-17T08:32:37.123Z,18.40
2022-08-17T08:35:04.687Z,17.67
2022-08-17T08:37:39.120Z,16.80
2022-08-17T08:40:14.147Z,19.07
2022-08-17T08:43:13.664Z,21.30
2022-08-17T08:45:56.795Z,19.27
2022-08-17T08:48:56.511Z,19.83
2022-08-17T08:51:47.235Z,17.43
2022-08-17T08:54:31.998Z,16.10
2022-08-17T08:57:34.027Z,14.60
2022-08-17T09:00:09.214Z,13.07
2022-08-17T09:02:54.958Z,17.83
2022-08-17T09:05:21.931Z,16.40
2022-08-17T09:08:10.538Z,17.70
2022-08-17T09:10:57.041Z,17.93
2022-08-17T09:13:34.000Z,17.90
2022-08-17T09:16:11.606Z,16.60
2022-08-17T09:19:03.527Z,17.20
2022-08-17T09:21:48.551Z,18.73
2022-08-17T09:24:28.934Z,18.27
2022-08-17T09:27:11.363Z,18.77
2022-08-17T09:29:40.292Z,14.43
2022-08-17T09:32:30.168Z,16.53
2022-08-17T09:35:02.021Z,21.80
2022-08-17T09:37:43.998Z,19.37
2022-08-17T09:40:20.230Z,19.57
2022-08-17T09:42:47.341Z,17.97
2022-08-17T09:45:32.873Z,18.50
2022-08-17T09:48:05.005Z,20.53
2022-08-17T09:51:05.174Z,15.63
2022-08-17T09:53:31.920Z,14.70
2022-08-17T09:56:17.953Z,16.90
2022-08-17T09:58:55.948Z,18.07
2022-08-17T10:01:29.372Z,17.67
2022-08-17T10:03:59.370Z,23.07
2022-08-17T10:06:30.488Z,18.60
2022-08-17T10:08:57.697Z,17.83
2022-08-17T10:11:45.698Z,19.63
2022-08-17T10:14:37.681Z,17.80
2022-08-17T10:17:29.874Z,18.87
2022-08-17T10:20:16.594Z,19.57
2022-08-17T10:23:07.346Z,21.37
2022-08-17T10:26:13.231Z,22.03
2022-08-17T10:29:03.967Z,16.73
2022-08-17T10:31:36.281Z,18.00
2022-08-17T10:34:38.746Z,18.53
2022-08-17T10:37:08.273Z,18.13
2022-08-17T10:39:52.693Z,23.10
2022-08-17T10:42:32.850Z,19.87
2022-08-17T10:45:06.391Z,20.10
2022-08-17T10:47:55.378Z,18.73
2022-08-17T10:50:42.857Z,14.90
2022-08-17T10:53:09.992Z,22.03
2022-08-17T10:55:36.882Z,22.07
2022-08-17T10:58:21.209Z,19.17
2022-08-17T11:00:51.060Z,14.97
2022-08-17T11:03:22.655Z,17.50
2022-08-17T11:05:55.440Z,22.13
2022-08-17T11:08:43.316Z,19.70
2022-08-17T11:11:13.194Z,14.00
2022-08-17T11:13:40.804Z,16.93
2022-08-17T11:16:29.349Z,19.67
2022-08-17T11:19:10.536Z,18.60
2022-08-17T11:21:56.394Z,17.80
2022-08-17T11:24:38.608Z,20.13
2022-08-17T11:27:12.315Z,17.13
2022-08-17T11:30:01.810Z,17.43
2022-08-17T11:32:32.536Z,16.73
2022-08-17T11:35:28.665Z,15.27
2022-08-17T11:38:03.247Z,16.20
2022-08-17T11:40:33.301Z,15.23
2022-08-17T11:43:03.819Z,15.27
2022-08-17T11:45:49.868Z,15.70
2022-08-17T11:48:41.224Z,17.33
2022-08-17T11:51:34.055Z,21.63
2022-08-17T11:54:31.837Z,15.60
2022-08-17T11:56:55.830Z,14.13
2022-08-17T11:59:40.227Z,15.67
2022-08-17T12:02:31.613Z,13.27
2022-08-17T12:05:05.481Z,15.17
2022-08-17T12:07:45.019Z,17.30
2022-08-17T12:10:13.344Z,14.03
2022-08-17T12:12:44.322Z,17.47
2022-08-17T12:15:17.555Z,13.53
2022-08-17T12:17:55.050Z,18.50
2022-08-17T12:20:40.207Z,17.37
2022-08-17T12:23:15.345Z,14.73
2022-08-17T12:25:53.183Z,19.27
2022-08-17T12:28:30.498Z,15.10
2022-08-17T12:31:06.073Z,15.57
2022-08-17T12:33:33.425Z,18.57
2022-08-17T12:36:03.307Z,13.40
2022-08-17T12:38:36.353Z,16.33
2022-08-17T12:41:25.128Z,16.47
2022-08-17T12:44:02.460Z,14.83
2022-08-17T12:46:34.214Z,13.57
2022-08-17T12:49:19.868Z,12.33
2022-08-17T12:51:47.153Z,13.10
2022-08-17T12:54:25.569Z,17.83
2022-08-17T12:56:52.781Z,16.97
2022-08-17T12:59:30.388Z,15.30
2022-08-17T13:01:57.803Z,12.77
2022-08-17T13:04:26.535Z,16.47
2022-08-17T13:06:59.645Z,13.37
2022-08-17T13:09:35.590Z,21.57
2022-08-17T13:12:08.057Z,23.90
2022-08-17T13:14:35.522Z,20.07
2022-08-17T13:17:08.366Z,14.17
2022-08-17T13:19:48.261Z,14.27
2022-08-17T13:22:15.272Z,14.50
2022-08-17T13:24:53.289Z,13.93
2022-08-17T13:27:21.364Z,14.67
2022-08-17T13:29:51.528Z,11.43
2022-08-17T13:32:23.280Z,16.17
2022-08-17T13:35:11.972Z,15.67
2022-08-17T13:37:56.180Z,11.47
2022-08-17T13:40:23.001Z,16.07
2022-08-17T13:42:52.854Z,11.80
2022-08-17T13:45:35.534Z,13.33
2022-08-17T13:48:24.141Z,11.67
2022-08-17T13:50:57.272Z,15.40
2022-08-17T13:53:29.765Z,14.93
2022-08-17T13:56:36.912Z,11.40
2022-08-17T13:59:01.050Z,12.43
2022-08-17T14:01:29.334Z,16.70
2022-08-17T14:03:56.606Z,18.00
2022-08-17T14:06:51.838Z,13.87
2022-08-17T14:09:12.619Z,17.30
2022-08-17T14:11:39.466Z,13.37
2022-08-17T14:14:06.453Z,14.43
2022-08-17T14:16:33.625Z,14.97
2022-08-17T14:19:00.536Z,14.07
2022-08-17T14:21:27.405Z,14.83
2022-08-17T14:23:55.052Z,14.50
2022-08-17T14:26:22.044Z,13.90
2022-08-17T14:28:56.551Z,17.23
2022-08-17T14:31:24.186Z,15.37
2022-08-17T14:33:52.262Z,13.37
2022-08-17T14:36:19.128Z,13.27
2022-08-17T14:38:46.124Z,16.17
2022-08-17T14:41:13.068Z,16.53
2022-08-17T14:43:40.158Z,18.07
2022-08-17T14:46:07.205Z,18.53
2022-08-17T14:48:35.984Z,17.60
2022-08-17T14:51:04.399Z,12.07
2022-08-17T14:53:31.284Z,15.23
2022-08-17T14:55:58.222Z,16.47
2022-08-17T14:58:25.177Z,15.07
2022-08-17T15:00:52.982Z,12.20
2022-08-17T15:03:19.905Z,14.03
2022-08-17T15:05:46.960Z,14.20
2022-08-17T15:08:14.111Z,12.43
2022-08-17T15:10:41.237Z,11.83
2022-08-17T15:13:20.147Z,12.77
2022-08-17T15:15:47.608Z,18.07
2022-08-17T15:18:14.695Z,12.27
2022-08-17T15:20:43.032Z,16.10
2022-08-17T15:23:16.442Z,11.33
2022-08-17T15:25:44.006Z,12.47
2022-08-17T15:28:10.929Z,10.67
2022-08-17T15:30:38.562Z,13.90
2022-08-17T15:33:05.755Z,15.93
2022-08-17T15:35:33.262Z,10.47
2022-08-17T15:38:07.954Z,11.87
2022-08-17T15:40:39.081Z,14.37
2022-08-17T15:43:06.860Z,11.37
2022-08-17T15:45:33.898Z,10.97
2022-08-17T15:48:00.913Z,11.57
2022-08-17T15:50:27.798Z,9.27
2022-08-17T15:52:55.918Z,13.10
2022-08-17T15:55:24.289Z,14.73
2022-08-17T15:57:52.354Z,13.67
2022-08-17T16:00:20.027Z,12.33
2022-08-17T16:03:44.507Z,17.27
2022-08-17T16:05:35.558Z,11.03
2022-08-17T16:08:02.453Z,13.63
2022-08-17T16:10:35.197Z,14.60
2022-08-17T16:13:03.505Z,11.23
2022-08-17T16:15:31.876Z,13.33
2022-08-17T16:17:59.413Z,11.13
2022-08-17T16:20:26.406Z,10.03
2022-08-17T16:22:53.791Z,12.30
2022-08-17T16:25:23.137Z,10.87
2022-08-17T16:28:10.110Z,12.53
2022-08-17T16:30:37.642Z,11.73
2022-08-17T16:33:04.988Z,11.87
2022-08-17T16:35:31.920Z,12.03
2022-08-17T16:37:59.182Z,10.77
2022-08-17T16:40:27.070Z,15.60
2022-08-17T16:42:54.429Z,11.57
2022-08-17T16:45:23.227Z,11.73
2022-08-17T16:47:50.490Z,13.93
2022-08-17T16:50:18.649Z,15.47
2022-08-17T16:52:48.605Z,13.87
2022-08-17T16:55:20.580Z,15.73
2022-08-17T16:57:50.344Z,16.23
2022-08-17T17:00:18.510Z,14.67
2022-08-17T17:02:47.436Z,9.60
2022-08-17T17:05:25.434Z,12.77
2022-08-17T17:08:09.158Z,10.63
2022-08-17T17:10:38.988Z,12.83
2022-08-17T17:13:09.713Z,9.67
2022-08-17T17:15:46.576Z,12.37
2022-08-17T17:18:15.426Z,10.90
2022-08-17T17:20:53.748Z,10.27
2022-08-17T17:23:23.376Z,9.97
2022-08-17T17:26:02.452Z,11.60
2022-08-17T17:28:29.319Z,9.73
2022-08-17T17:31:02.344Z,17.10
2022-08-17T17:33:36.741Z,12.20
2022-08-17T17:36:22.295Z,18.53
2022-08-17T17:38:53.240Z,13.40
2022-08-17T17:41:38.954Z,14.37
2022-08-17T17:44:08.329Z,15.10
2022-08-17T17:46:38.548Z,11.33
2022-08-17T17:49:11.424Z,14.77
2022-08-17T17:52:09.969Z,12.27
2022-08-17T17:54:51.227Z,12.30
2022-08-17T17:57:36.618Z,14.73
2022-08-17T18:00:18.699Z,16.50
2022-08-17T18:03:10.199Z,13.57
2022-08-17T18:05:37.256Z,15.53
2022-08-17T18:08:11.064Z,15.03
2022-08-17T18:10:38.123Z,12.73
2022-08-17T18:13:13.015Z,14.57
2022-08-17T18:15:42.846Z,13.20
2022-08-17T18:18:16.174Z,16.83
2022-08-17T18:20:53.292Z,21.73
2022-08-17T18:23:27.639Z,13.60
2022-08-17T18:25:56.102Z,15.23
2022-08-17T18:28:28.590Z,20.93
2022-08-17T18:31:10.624Z,14.43
2022-08-17T18:33:38.658Z,18.50
2022-08-17T18:36:06.398Z,15.23
2022-08-17T18:38:35.142Z,14.07
2022-08-17T18:41:23.825Z,15.07
2022-08-17T18:44:02.052Z,17.17
2022-08-17T18:46:35.364Z,13.57
2022-08-17T18:49:07.055Z,21.40
2022-08-17T18:51:41.110Z,18.03
2022-08-17T18:54:20.324Z,19.20
2022-08-17T18:57:00.304Z,16.57
2022-08-17T18:59:27.325Z,17.50
2022-08-17T19:01:58.873Z,21.30
2022-08-17T19:04:28.624Z,13.77
2022-08-17T19:07:05.586Z,19.67
2022-08-17T19:09:34.857Z,17.77
2022-08-17T19:12:04.123Z,22.57
2022-08-17T19:14:31.452Z,15.83
2022-08-17T19:17:02.022Z,21.37
2022-08-17T19:19:28.893Z,14.03
2022-08-17T19:21:57.478Z,14.20
2022-08-17T19:24:26.590Z,16.77
2022-08-17T19:27:11.294Z,15.90
2022-08-17T19:29:47.493Z,21.17
2022-08-17T19:32:16.124Z,23.97
2022-08-17T19:34:44.653Z,17.10
2022-08-17T19:37:21.808Z,17.63
2022-08-17T19:40:24.522Z,18.07
2022-08-17T19:43:06.757Z,16.40
2022-08-17T19:45:33.655Z,22.90
2022-08-17T19:48:20.154Z,27.57
2022-08-17T19:50:56.040Z,26.03
2022-08-17T19:53:33.205Z,30.23
2022-08-17T19:56:20.313Z,24.30
2022-08-17T19:58:51.426Z,17.33
2022-08-17T20:01:41.895Z,23.20
2022-08-17T20:04:13.172Z,18.03
2022-08-17T20:06:43.302Z,20.47
2022-08-17T20:09:15.309Z,23.30
2022-08-17T20:11:46.686Z,21.13
2022-08-17T20:14:15.232Z,21.27
2022-08-17T20:16:42.392Z,23.90
2022-08-17T20:19:28.449Z,21.00
2022-08-17T20:22:06.583Z,29.13
2022-08-17T20:24:52.354Z,21.57
2022-08-17T20:27:21.847Z,20.43
2022-08-17T20:30:03.124Z,22.50
2022-08-17T20:32:33.805Z,27.63
2022-08-17T20:35:19.444Z,19.07
2022-08-17T20:37:54.580Z,22.03
2022-08-17T20:40:38.700Z,24.63
2022-08-17T20:43:24.945Z,25.23
2022-08-17T20:45:58.038Z,22.40
2022-08-17T20:48:38.741Z,22.20
2022-08-17T20:51:17.765Z,29.60
2022-08-17T20:53:47.727Z,25.70
2022-08-17T20:56:33.248Z,24.73
2022-08-17T20:59:01.184Z,26.13
2022-08-17T21:01:39.840Z,24.77
2022-08-17T21:04:08.513Z,27.30
2022-08-17T21:06:55.331Z,29.87
2022-08-17T21:09:28.819Z,26.40
2022-08-17T21:12:04.661Z,25.30
2022-08-17T21:14:52.506Z,26.40
2022-08-17T21:17:39.626Z,22.63
2022-08-17T21:20:14.999Z,24.90
2022-08-17T21:23:02.079Z,22.20
2022-08-17T21:25:48.412Z,20.27
2022-08-17T21:28:15.237Z,26.30
2022-08-17T21:30:47.891Z,29.60
2022-08-17T21:33:31.699Z,37.57
2022-08-17T21:36:14.518Z,22.23
2022-08-17T21:38:49.056Z,21.47
2022-08-17T21:41:23.813Z,25.27
2022-08-17T21:43:52.371Z,26.10
2022-08-17T21:46:30.548Z,29.80
2022-08-17T21:49:03.181Z,34.90
2022-08-17T21:51:44.963Z,30.80
2022-08-17T21:54:32.123Z,31.80
2022-08-17T21:57:01.421Z,44.10
2022-08-17T21:59:30.811Z,29.17
2022-08-17T22:01:59.560Z,25.17
2022-08-17T22:04:34.297Z,28.30
2022-08-17T22:07:03.326Z,26.90
2022-08-17T22:09:31.868Z,26.80
2022-08-17T22:12:01.558Z,28.37
2022-08-17T22:14:52.629Z,25.80
2022-08-17T22:17:17.530Z,25.17
2022-08-17T22:19:46.397Z,26.27
2022-08-17T22:22:27.914Z,25.17
2022-08-17T22:24:58.712Z,24.87
2022-08-17T22:27:45.936Z,25.93
2022-08-17T22:30:25.195Z,25.67
2022-08-17T22:32:52.273Z,29.33
2022-08-17T22:35:25.354Z,23.70
2022-08-17T22:37:52.730Z,23.23
2022-08-17T22:40:33.211Z,23.73
2022-08-17T22:43:01.700Z,26.03
2022-08-17T22:45:33.871Z,27.40
2022-08-17T22:48:02.284Z,27.57
2022-08-17T22:50:30.650Z,26.17
2022-08-17T22:53:20.891Z,23.97
2022-08-17T22:56:14.863Z,20.70
2022-08-17T22:59:18.800Z,25.83
2022-08-17T23:02:05.962Z,25.87
2022-08-17T23:04:35.608Z,23.77
2022-08-17T23:07:02.591Z,27.33
2022-08-17T23:09:30.116Z,26.23
2022-08-17T23:12:00.139Z,29.20
2022-08-17T23:14:31.703Z,26.97
2022-08-17T23:16:59.586Z,23.47
2022-08-17T23:19:27.505Z,25.67
2022-08-17T23:21:55.932Z,24.43
2022-08-17T23:24:25.493Z,25.03
2022-08-17T23:26:52.668Z,30.80
2022-08-17T23:29:21.532Z,26.20
2022-08-17T23:31:49.502Z,25.13
2022-08-17T23:34:18.581Z,30.17
2022-08-17T23:36:55.055Z,22.40
2022-08-17T23:39:27.360Z,23.63
2022-08-17T23:41:55.114Z,21.80
2022-08-17T23:44:24.007Z,23.60
2022-08-17T23:46:51.635Z,25.63
2022-08-17T23:49:19.286Z,29.27
2022-08-17T23:51:48.020Z,27.60
2022-08-17T23:54:23.376Z,30.13
2022-08-17T23:56:50.721Z,31.57
2022-08-17T23:59:18.645Z,26.33
